createdAt,value
2018-01-10T00:01:11.046Z,13.16
2018-01-10T00:03:39.492Z,12.30
2018-01-10T00:06:07.296Z,11.88
2018-01-10T00:08:34.968Z,11.80
2018-01-10T00:11:02.798Z,11.43
2018-01-10T00:13:30.502Z,13.60
2018-01-10T00:15:58.262Z,11.65
2018-01-10T00:18:25.904Z,12.30
2018-01-10T00:20:53.570Z,13.45
2018-01-10T00:23:21.221Z,12.27
2018-01-10T00:25:49.568Z,12.43
2018-01-10T00:28:17.470Z,12.25
2018-01-10T00:30:45.134Z,12.93
2018-01-10T00:33:12.922Z,12.67
2018-01-10T00:35:40.547Z,12.67
2018-01-10T00:38:08.216Z,12.35
2018-01-10T00:40:35.871Z,13.03
2018-01-10T00:43:03.532Z,12.30
2018-01-10T00:45:31.206Z,17.52
2018-01-10T00:47:58.821Z,16.87
2018-01-10T00:50:26.941Z,16.67
2018-01-10T00:52:54.561Z,17.23
2018-01-10T00:55:22.218Z,15.65
2018-01-10T00:57:49.925Z,12.70
2018-01-10T01:00:17.598Z,13.50
2018-01-10T01:02:46.765Z,12.98
2018-01-10T01:05:14.430Z,12.27
2018-01-10T01:07:42.049Z,12.77
2018-01-10T01:10:09.674Z,13.13
2018-01-10T01:12:37.355Z,11.52
2018-01-10T01:15:04.978Z,13.67
2018-01-10T01:17:32.946Z,13.10
2018-01-10T01:20:00.710Z,13.63
2018-01-10T01:22:28.508Z,13.97
2018-01-10T01:24:56.897Z,10.97
2018-01-10T01:27:24.567Z,12.30
2018-01-10T01:29:53.297Z,13.00
2018-01-10T01:32:21.621Z,13.10
2018-01-10T01:34:49.273Z,10.33
2018-01-10T01:37:16.924Z,12.60
2018-01-10T01:39:45.309Z,12.00
2018-01-10T01:42:13.735Z,13.20
2018-01-10T01:44:41.398Z,12.30
2018-01-10T01:47:09.776Z,13.45
2018-01-10T01:49:37.398Z,14.43
2018-01-10T01:52:05.058Z,12.73
2018-01-10T01:54:32.701Z,12.80
2018-01-10T01:57:00.495Z,13.10
2018-01-10T01:59:28.192Z,13.93
2018-01-10T02:01:55.819Z,13.97
2018-01-10T02:04:23.477Z,13.38
2018-01-10T02:06:51.102Z,12.77
2018-01-10T02:09:19.408Z,13.93
2018-01-10T02:11:47.060Z,13.37
2018-01-10T02:14:14.674Z,13.67
2018-01-10T02:16:43.690Z,13.10
2018-01-10T02:19:11.324Z,13.60
2018-01-10T02:21:38.977Z,13.23
2018-01-10T02:24:06.601Z,15.25
2018-01-10T02:26:34.252Z,11.83
2018-01-10T02:29:02.501Z,12.97
2018-01-10T02:31:30.933Z,12.43
2018-01-10T02:33:58.590Z,13.90
2018-01-10T02:36:26.201Z,13.17
2018-01-10T02:38:53.861Z,13.43
2018-01-10T02:41:21.523Z,12.80
2018-01-10T02:43:49.949Z,14.10
2018-01-10T02:46:17.770Z,12.75
2018-01-10T02:48:45.614Z,14.00
2018-01-10T02:51:13.233Z,13.83
2018-01-10T02:53:40.892Z,14.20
2018-01-10T02:56:08.683Z,13.38
2018-01-10T02:58:36.344Z,13.90
2018-01-10T03:01:04.006Z,13.47
2018-01-10T03:03:31.626Z,13.40
2018-01-10T03:05:59.279Z,14.23
2018-01-10T03:08:26.902Z,13.60
2018-01-10T03:10:54.561Z,14.53
2018-01-10T03:13:22.717Z,14.13
2018-01-10T03:15:50.338Z,14.80
2018-01-10T03:18:17.955Z,15.73
2018-01-10T03:20:45.610Z,14.95
2018-01-10T03:23:15.043Z,14.00
2018-01-10T03:25:42.674Z,14.82
2018-01-10T03:28:10.893Z,14.73
2018-01-10T03:30:38.590Z,13.80
2018-01-10T03:33:06.210Z,15.13
2018-01-10T03:35:33.861Z,14.05
2018-01-10T03:38:01.474Z,12.67
2018-01-10T03:40:29.133Z,14.23
2018-01-10T03:42:56.752Z,14.50
2018-01-10T03:45:25.089Z,14.13
2018-01-10T03:47:52.938Z,12.95
2018-01-10T03:50:20.781Z,14.23
2018-01-10T03:52:48.460Z,15.38
2018-01-10T03:55:16.718Z,12.88
2018-01-10T03:57:44.389Z,15.68
2018-01-10T04:00:12.045Z,16.10
2018-01-10T04:02:39.698Z,15.32
2018-01-10T04:05:07.304Z,15.93
2018-01-10T04:07:35.717Z,14.70
2018-01-10T04:10:03.361Z,14.43
2018-01-10T04:12:31.713Z,14.47
2018-01-10T04:14:59.400Z,15.87
2018-01-10T04:17:27.646Z,16.53
2018-01-10T04:19:56.349Z,15.10
2018-01-10T04:22:24.006Z,16.07
2018-01-10T04:24:51.669Z,15.32
2018-01-10T04:27:19.293Z,14.30
2018-01-10T04:29:47.256Z,16.93
2018-01-10T04:32:14.873Z,14.90
2018-01-10T04:34:42.521Z,16.23
2018-01-10T04:37:10.179Z,16.00
2018-01-10T04:39:37.878Z,15.88
2018-01-10T04:42:05.561Z,15.47
2018-01-10T04:44:33.177Z,16.80
2018-01-10T04:47:00.845Z,14.75
2018-01-10T04:49:28.461Z,15.63
2018-01-10T04:51:56.385Z,16.30
2018-01-10T04:54:24.037Z,16.00
2018-01-10T04:56:51.861Z,16.30
2018-01-10T04:59:20.544Z,16.00
2018-01-10T05:01:48.975Z,16.87
2018-01-10T05:04:16.645Z,14.93
2018-01-10T05:06:44.413Z,16.63
2018-01-10T05:09:12.071Z,17.02
2018-01-10T05:11:39.694Z,15.50
2018-01-10T05:14:07.342Z,17.87
2018-01-10T05:16:35.010Z,16.10
2018-01-10T05:19:03.284Z,15.83
2018-01-10T05:21:31.106Z,18.08
2018-01-10T05:23:59.062Z,15.50
2018-01-10T05:26:26.789Z,17.50
2018-01-10T05:28:54.566Z,17.33
2018-01-10T05:31:22.188Z,15.12
2018-01-10T05:33:50.673Z,17.60
2018-01-10T05:36:18.478Z,16.33
2018-01-10T05:38:46.389Z,16.58
2018-01-10T05:41:14.810Z,17.97
2018-01-10T05:43:42.767Z,15.53
2018-01-10T05:46:10.633Z,19.10
2018-01-10T05:48:38.565Z,16.00
2018-01-10T05:51:06.229Z,17.17
2018-01-10T05:53:35.066Z,15.40
2018-01-10T05:56:02.689Z,17.70
2018-01-10T05:58:30.341Z,14.63
2018-01-10T06:00:58.767Z,17.35
2018-01-10T06:03:26.396Z,17.83
2018-01-10T06:05:54.072Z,17.37
2018-01-10T06:08:21.691Z,18.45
2018-01-10T06:10:50.219Z,16.67
2018-01-10T06:13:17.849Z,17.80
2018-01-10T06:15:45.474Z,16.50
2018-01-10T06:18:13.194Z,16.95
2018-01-10T06:20:40.813Z,17.20
2018-01-10T06:23:08.446Z,18.67
2018-01-10T06:25:36.141Z,18.60
2018-01-10T06:28:04.545Z,16.97
2018-01-10T06:30:32.248Z,18.05
2018-01-10T06:32:59.867Z,17.40
2018-01-10T06:35:27.533Z,19.53
2018-01-10T06:37:55.153Z,18.87
2018-01-10T06:40:24.765Z,19.23
2018-01-10T06:42:53.180Z,18.60
2018-01-10T06:45:20.834Z,17.50
2018-01-10T06:47:48.454Z,18.63
2018-01-10T06:50:16.913Z,17.08
2018-01-10T06:52:44.594Z,18.33
2018-01-10T06:55:12.989Z,18.02
2018-01-10T06:57:40.622Z,18.10
2018-01-10T07:00:08.288Z,16.40
2018-01-10T07:02:36.713Z,17.87
2018-01-10T07:05:04.343Z,17.63
2018-01-10T07:07:32.006Z,18.10
2018-01-10T07:09:59.851Z,20.20
2018-01-10T07:12:27.485Z,18.87
2018-01-10T07:14:55.231Z,17.10
2018-01-10T07:17:22.902Z,18.43
2018-01-10T07:19:50.525Z,17.80
2018-01-10T07:22:18.155Z,19.83
2018-01-10T07:24:46.714Z,18.47
2018-01-10T07:27:14.334Z,19.15
2018-01-10T07:29:42.006Z,17.77
2018-01-10T07:32:09.621Z,19.30
2018-01-10T07:34:37.565Z,17.80
2018-01-10T07:37:05.192Z,16.83
2018-01-10T07:39:33.448Z,17.40
2018-01-10T07:42:01.237Z,17.70
2018-01-10T07:44:28.897Z,19.30
2018-01-10T07:46:56.762Z,16.60
2018-01-10T07:49:24.527Z,18.05
2018-01-10T07:51:52.513Z,19.20
2018-01-10T07:54:20.181Z,17.80
2018-01-10T07:56:47.851Z,19.90
2018-01-10T07:59:16.398Z,17.83
2018-01-10T08:01:44.058Z,18.70
2018-01-10T08:04:11.999Z,18.70
2018-01-10T08:06:40.006Z,17.30
2018-01-10T08:09:07.629Z,18.15
2018-01-10T08:11:35.292Z,18.62
2018-01-10T08:14:02.995Z,18.10
2018-01-10T08:16:30.687Z,19.30
2018-01-10T08:18:58.518Z,19.90
2018-01-10T08:21:26.291Z,18.87
2018-01-10T08:23:54.571Z,19.17
2018-01-10T08:26:22.185Z,18.10
2018-01-10T08:28:50.463Z,19.90
2018-01-10T08:31:18.134Z,18.48
2018-01-10T08:33:45.795Z,18.73
2018-01-10T08:36:13.469Z,21.00
2018-01-10T08:38:41.126Z,18.37
2018-01-10T08:41:08.761Z,22.47
2018-01-10T08:43:37.177Z,23.42
2018-01-10T08:46:04.802Z,20.97
2018-01-10T08:48:32.596Z,22.23
2018-01-10T08:51:00.222Z,23.33
2018-01-10T08:53:27.837Z,23.53
2018-01-10T08:55:56.277Z,22.35
2018-01-10T08:58:23.954Z,21.87
2018-01-10T09:00:51.572Z,21.80
2018-01-10T09:03:19.229Z,24.73
2018-01-10T09:05:46.854Z,21.47
2018-01-10T09:08:14.522Z,20.88
2018-01-10T09:10:42.745Z,21.10
2018-01-10T09:13:10.374Z,19.30
2018-01-10T09:15:38.073Z,21.23
2018-01-10T09:18:06.370Z,20.93
2018-01-10T09:20:34.054Z,21.00
2018-01-10T09:23:01.887Z,20.13
2018-01-10T09:25:29.561Z,19.85
2018-01-10T09:27:57.384Z,22.67
2018-01-10T09:30:25.011Z,23.80
2018-01-10T09:32:52.678Z,24.97
2018-01-10T09:35:20.338Z,23.17
2018-01-10T09:37:47.998Z,25.43
2018-01-10T09:40:15.625Z,24.48
2018-01-10T09:42:43.290Z,24.80
2018-01-10T09:45:10.930Z,20.83
2018-01-10T09:47:39.369Z,23.27
2018-01-10T09:50:07.049Z,20.50
2018-01-10T09:52:34.767Z,18.77
2018-01-10T09:55:03.465Z,20.70
2018-01-10T09:57:31.848Z,19.60
2018-01-10T09:59:59.599Z,19.87
2018-01-10T10:02:28.249Z,20.87
2018-01-10T10:04:57.614Z,19.87
2018-01-10T10:07:25.262Z,19.27
2018-01-10T10:09:52.917Z,18.98
2018-01-10T10:12:20.534Z,19.40
2018-01-10T10:14:48.198Z,20.70
2018-01-10T10:17:15.827Z,19.90
2018-01-10T10:19:43.635Z,18.40
2018-01-10T10:22:11.573Z,18.17
2018-01-10T10:24:39.420Z,19.77
2018-01-10T10:27:07.099Z,19.73
2018-01-10T10:29:34.717Z,20.08
2018-01-10T10:32:02.374Z,20.57
2018-01-10T10:34:29.990Z,18.83
2018-01-10T10:36:57.650Z,18.85
2018-01-10T10:39:26.034Z,18.80
2018-01-10T10:41:53.708Z,19.90
2018-01-10T10:44:22.361Z,19.67
2018-01-10T10:46:49.978Z,19.60
2018-01-10T10:49:17.632Z,20.12
2018-01-10T10:51:45.533Z,19.80
2018-01-10T10:54:13.210Z,18.97
2018-01-10T10:56:40.829Z,20.88
2018-01-10T10:59:08.631Z,19.30
2018-01-10T11:01:37.329Z,21.10
2018-01-10T11:04:05.163Z,19.70
2018-01-10T11:06:33.765Z,20.00
2018-01-10T11:09:02.382Z,20.40
2018-01-10T11:11:30.057Z,19.13
2018-01-10T11:13:57.972Z,19.50
2018-01-10T11:16:25.597Z,19.37
2018-01-10T11:18:53.290Z,18.83
2018-01-10T11:21:20.917Z,20.33
2018-01-10T11:23:48.535Z,18.40
2018-01-10T11:26:16.225Z,19.77
2018-01-10T11:28:43.851Z,19.15
2018-01-10T11:31:11.497Z,18.77
2018-01-10T11:33:39.162Z,18.90
2018-01-10T11:36:06.822Z,19.40
2018-01-10T11:38:34.482Z,20.60
2018-01-10T11:41:03.054Z,21.20
2018-01-10T11:43:30.956Z,19.17
2018-01-10T11:45:58.583Z,19.37
2018-01-10T11:48:26.201Z,20.57
2018-01-10T11:50:53.898Z,18.87
2018-01-10T11:53:21.655Z,20.50
2018-01-10T11:55:49.322Z,18.53
2018-01-10T11:58:17.089Z,20.67
2018-01-10T12:00:44.701Z,19.37
2018-01-10T12:03:12.360Z,18.57
2018-01-10T12:05:39.993Z,19.92
2018-01-10T12:08:07.656Z,20.00
2018-01-10T12:10:35.276Z,19.97
2018-01-10T12:13:03.139Z,19.03
2018-01-10T12:15:30.826Z,20.45
2018-01-10T12:17:58.454Z,19.60
2018-01-10T12:20:26.337Z,20.50
2018-01-10T12:22:54.105Z,19.37
2018-01-10T12:25:22.362Z,20.70
2018-01-10T12:27:50.003Z,20.27
2018-01-10T12:30:17.674Z,19.27
2018-01-10T12:32:45.784Z,20.20
2018-01-10T12:35:13.441Z,19.90
2018-01-10T12:37:41.298Z,21.47
2018-01-10T12:40:08.924Z,21.45
2018-01-10T12:42:36.537Z,21.87
2018-01-10T12:45:05.004Z,21.80
2018-01-10T12:47:32.630Z,19.67
2018-01-10T12:50:00.303Z,21.43
2018-01-10T12:52:27.974Z,20.15
2018-01-10T12:54:55.601Z,21.00
2018-01-10T12:57:23.261Z,17.37
2018-01-10T12:59:50.881Z,20.20
2018-01-10T13:02:19.329Z,21.90
2018-01-10T13:04:46.951Z,20.30
2018-01-10T13:07:14.615Z,21.60
2018-01-10T13:09:42.237Z,20.57
2018-01-10T13:12:10.657Z,18.87
2018-01-10T13:14:38.281Z,22.00
2018-01-10T13:17:06.710Z,19.95
2018-01-10T13:19:34.331Z,21.70
2018-01-10T13:22:02.018Z,20.45
2018-01-10T13:24:29.648Z,19.70
2018-01-10T13:26:58.025Z,19.70
2018-01-10T13:29:25.691Z,21.23
2018-01-10T13:31:53.324Z,21.40
2018-01-10T13:34:21.763Z,21.17
2018-01-10T13:36:49.431Z,20.60
2018-01-10T13:39:17.099Z,20.75
2018-01-10T13:41:44.717Z,20.40
2018-01-10T13:44:12.386Z,21.63
2018-01-10T13:46:40.006Z,22.15
2018-01-10T13:49:07.681Z,23.67
2018-01-10T13:51:36.069Z,20.80
2018-01-10T13:54:03.747Z,21.90
2018-01-10T13:56:31.370Z,20.87
2018-01-10T13:58:59.751Z,20.87
2018-01-10T14:01:27.598Z,21.07
2018-01-10T14:03:55.256Z,21.23
2018-01-10T14:06:22.910Z,19.47
2018-01-10T14:08:50.530Z,21.03
2018-01-10T14:11:18.186Z,21.25
2018-01-10T14:13:45.805Z,19.93
2018-01-10T14:16:14.229Z,20.63
2018-01-10T14:18:42.157Z,21.80
2018-01-10T14:21:09.822Z,24.50
2018-01-10T14:23:38.205Z,20.62
2018-01-10T14:26:06.635Z,21.48
2018-01-10T14:28:34.254Z,21.25
2018-01-10T14:31:01.933Z,23.73
2018-01-10T14:33:29.610Z,21.53
2018-01-10T14:35:57.229Z,22.20
2018-01-10T14:38:24.889Z,23.20
2018-01-10T14:40:52.522Z,22.83
2018-01-10T14:43:20.177Z,20.90
2018-01-10T14:45:47.830Z,21.17
2018-01-10T14:48:16.213Z,23.23
2018-01-10T14:50:43.870Z,20.60
2018-01-10T14:53:11.493Z,22.47
2018-01-10T14:55:39.153Z,22.25
2018-01-10T14:58:06.847Z,22.23
2018-01-10T15:00:35.257Z,23.00
2018-01-10T15:03:03.679Z,22.47
2018-01-10T15:05:31.448Z,22.30
2018-01-10T15:07:59.674Z,22.87
2018-01-10T15:10:27.863Z,22.75
2018-01-10T15:12:55.521Z,23.03
2018-01-10T15:15:23.866Z,22.50
2018-01-10T15:17:53.025Z,22.40
2018-01-10T15:20:20.706Z,21.87
2018-01-10T15:22:48.669Z,22.47
2018-01-10T15:25:16.285Z,22.25
2018-01-10T15:27:43.942Z,25.77
2018-01-10T15:30:11.561Z,22.60
2018-01-10T15:32:39.981Z,21.10
2018-01-10T15:35:07.646Z,21.73
2018-01-10T15:37:36.051Z,22.87
2018-01-10T15:40:03.730Z,22.90
2018-01-10T15:42:31.392Z,20.55
2018-01-10T15:44:59.194Z,22.87
2018-01-10T15:47:26.850Z,21.50
2018-01-10T15:49:54.518Z,21.58
2018-01-10T15:52:22.905Z,23.17
2018-01-10T15:54:50.917Z,22.00
2018-01-10T15:57:18.748Z,21.52
2018-01-10T15:59:46.363Z,23.10
2018-01-10T16:02:14.021Z,20.47
2018-01-10T16:04:42.410Z,22.20
2018-01-10T16:07:10.038Z,22.20
2018-01-10T16:09:37.695Z,20.97
2018-01-10T16:12:05.323Z,23.00
2018-01-10T16:14:32.950Z,22.20
2018-01-10T16:17:00.623Z,21.45
2018-01-10T16:19:28.237Z,22.13
2018-01-10T16:21:55.902Z,22.90
2018-01-10T16:24:23.541Z,22.27
2018-01-10T16:26:51.179Z,23.95
2018-01-10T16:29:18.842Z,21.70
2018-01-10T16:31:46.509Z,21.77
2018-01-10T16:34:14.142Z,21.23
2018-01-10T16:36:41.801Z,23.58
2018-01-10T16:39:09.470Z,22.65
2018-01-10T16:41:37.093Z,21.20
2018-01-10T16:44:04.962Z,24.03
2018-01-10T16:46:33.203Z,22.43
2018-01-10T16:49:01.090Z,20.90
2018-01-10T16:51:28.727Z,22.70
2018-01-10T16:53:56.386Z,22.92
2018-01-10T16:56:24.053Z,22.70
2018-01-10T16:58:51.670Z,21.50
2018-01-10T17:01:19.321Z,22.50
2018-01-10T17:03:48.324Z,22.33
2018-01-10T17:06:16.863Z,22.50
2018-01-10T17:08:44.729Z,26.08
2018-01-10T17:11:12.352Z,24.20
2018-01-10T17:13:40.017Z,22.30
2018-01-10T17:16:07.628Z,21.87
2018-01-10T17:18:35.277Z,24.37
2018-01-10T17:21:02.938Z,24.00
2018-01-10T17:23:30.558Z,22.27
2018-01-10T17:25:58.683Z,22.87
2018-01-10T17:28:26.301Z,22.57
2018-01-10T17:30:53.955Z,22.03
2018-01-10T17:33:21.586Z,21.40
2018-01-10T17:35:49.241Z,23.80
2018-01-10T17:38:17.957Z,20.97
2018-01-10T17:40:46.633Z,21.73
2018-01-10T17:43:14.336Z,20.50
2018-01-10T17:45:42.032Z,22.17
2018-01-10T17:48:09.661Z,24.50
2018-01-10T17:50:37.333Z,21.50
2018-01-10T17:53:05.009Z,22.13
2018-01-10T17:55:32.851Z,21.75
2018-01-10T18:00:52.373Z,26.87
2018-01-10T18:03:20.033Z,22.77
2018-01-10T18:05:47.853Z,22.25
2018-01-10T18:08:15.519Z,23.30
2018-01-10T18:10:43.374Z,22.33
2018-01-10T18:13:11.054Z,23.20
2018-01-10T18:15:38.707Z,20.95
2018-01-10T18:18:06.365Z,23.77
2018-01-10T18:20:34.034Z,22.52
2018-01-10T18:23:01.886Z,22.45
2018-01-10T18:25:29.728Z,23.73
2018-01-10T18:27:57.346Z,22.50
2018-01-10T18:30:25.015Z,23.27
2018-01-10T18:32:56.167Z,23.90
2018-01-10T18:35:28.879Z,23.90
2018-01-10T18:38:02.100Z,24.87
2018-01-10T18:40:35.876Z,24.70
2018-01-10T18:43:10.282Z,24.05
2018-01-10T18:45:44.862Z,23.47
2018-01-10T18:48:19.950Z,25.05
2018-01-10T18:50:53.747Z,23.40
2018-01-10T18:53:29.097Z,24.92
2018-01-10T18:56:02.580Z,23.03
2018-01-10T18:58:36.528Z,23.30
2018-01-10T19:01:10.676Z,25.00
2018-01-10T19:03:43.810Z,25.80
2018-01-10T19:06:17.510Z,27.25
2018-01-10T19:08:50.052Z,26.60
2018-01-10T19:11:23.874Z,25.90
2018-01-10T19:13:56.665Z,24.93
2018-01-10T19:16:30.009Z,24.67
2018-01-10T19:19:03.350Z,25.40
2018-01-10T19:21:35.790Z,26.80
2018-01-10T19:24:08.887Z,25.75
2018-01-10T19:26:42.686Z,25.50
2018-01-10T19:29:17.427Z,25.40
2018-01-10T19:31:51.351Z,24.57
2018-01-10T19:34:24.479Z,25.77
2018-01-10T19:36:56.520Z,26.17
2018-01-10T19:39:28.109Z,25.87
2018-01-10T19:42:01.808Z,25.30
2018-01-10T19:44:34.812Z,25.08
2018-01-10T19:47:07.868Z,26.85
2018-01-10T19:49:43.741Z,26.33
2018-01-10T19:52:19.795Z,25.95
2018-01-10T19:54:51.742Z,26.45
2018-01-10T19:57:25.431Z,28.15
2018-01-10T19:59:53.372Z,25.90
2018-01-10T20:02:20.993Z,29.03
2018-01-10T20:04:49.308Z,26.37
2018-01-10T20:07:16.930Z,25.58
2018-01-10T20:09:44.919Z,25.53
2018-01-10T20:12:12.549Z,26.00
2018-01-10T20:14:40.209Z,25.50
2018-01-10T20:17:07.845Z,26.95
2018-01-10T20:19:36.806Z,25.30
2018-01-10T20:22:06.520Z,25.20
2018-01-10T20:24:36.211Z,28.00
2018-01-10T20:27:06.177Z,26.65
2018-01-10T20:29:35.833Z,26.42
2018-01-10T20:32:05.819Z,27.70
2018-01-10T20:34:35.444Z,27.13
2018-01-10T20:37:05.418Z,27.77
2018-01-10T20:39:35.254Z,26.50
2018-01-10T20:42:05.315Z,25.15
2018-01-10T20:44:35.510Z,25.90
2018-01-10T20:47:05.685Z,25.37
2018-01-10T20:49:34.829Z,24.73
2018-01-10T20:52:05.137Z,26.70
2018-01-10T20:54:34.762Z,25.37
2018-01-10T20:57:05.748Z,27.47
2018-01-10T20:59:35.116Z,26.60
2018-01-10T21:02:05.404Z,26.37
2018-01-10T21:04:38.145Z,27.43
2018-01-10T21:07:12.446Z,26.90
2018-01-10T21:09:42.162Z,24.92
2018-01-10T21:12:12.468Z,27.23
2018-01-10T21:14:41.857Z,26.37
2018-01-10T21:17:11.703Z,26.90
2018-01-10T21:19:41.592Z,29.17
2018-01-10T21:22:15.104Z,26.77
2018-01-10T21:24:46.939Z,25.97
2018-01-10T21:27:17.716Z,28.10
2018-01-10T21:29:50.073Z,26.23
2018-01-10T21:32:21.908Z,27.10
2018-01-10T21:34:53.951Z,26.93
2018-01-10T21:37:27.186Z,26.20
2018-01-10T21:40:00.484Z,25.37
2018-01-10T21:42:31.868Z,24.60
2018-01-10T21:45:03.568Z,26.50
2018-01-10T21:47:35.828Z,25.00
2018-01-10T21:50:10.076Z,26.00
2018-01-10T21:52:40.973Z,27.07
2018-01-10T21:55:11.897Z,26.37
2018-01-10T21:57:39.621Z,26.73
2018-01-10T22:00:07.278Z,26.30
2018-01-10T22:02:34.958Z,25.00
2018-01-10T22:05:02.574Z,25.00
2018-01-10T22:07:30.997Z,25.37
2018-01-10T22:09:58.625Z,25.05
2018-01-10T22:12:27.125Z,26.30
2018-01-10T22:14:54.784Z,24.90
2018-01-10T22:17:22.410Z,26.63
2018-01-10T22:19:50.062Z,24.50
2018-01-10T22:22:18.747Z,23.80
2018-01-10T22:24:46.572Z,25.90
2018-01-10T22:27:14.190Z,25.00
2018-01-10T22:29:41.869Z,25.70
2018-01-10T22:32:10.122Z,23.43
2018-01-10T22:34:37.790Z,25.70
2018-01-10T22:37:05.512Z,25.07
2018-01-10T22:39:33.173Z,24.33
2018-01-10T22:42:00.828Z,25.77
2018-01-10T22:44:28.493Z,25.33
2018-01-10T22:46:56.114Z,24.93
2018-01-10T22:49:23.778Z,25.15
2018-01-10T22:51:51.434Z,24.10
2018-01-10T22:54:19.049Z,24.00
2018-01-10T22:56:47.606Z,23.65
2018-01-10T22:59:15.266Z,23.20
2018-01-10T23:01:42.927Z,23.25
2018-01-10T23:04:10.706Z,25.00
2018-01-10T23:06:38.360Z,27.73
2018-01-10T23:09:06.025Z,24.63
2018-01-10T23:11:34.253Z,26.35
2018-01-10T23:14:01.901Z,24.17
2018-01-10T23:16:29.513Z,24.97
2018-01-10T23:18:57.192Z,23.27
2018-01-10T23:21:25.521Z,25.85
2018-01-10T23:23:53.173Z,23.20
2018-01-10T23:26:20.793Z,25.70
2018-01-10T23:28:49.208Z,24.67
2018-01-10T23:31:16.826Z,24.77
2018-01-10T23:33:44.489Z,24.83
2018-01-10T23:36:13.608Z,23.05
2018-01-10T23:38:41.998Z,23.23
2018-01-10T23:41:09.657Z,23.45
2018-01-10T23:43:37.410Z,23.62
2018-01-10T23:46:05.073Z,23.67
2018-01-10T23:48:32.690Z,23.70
2018-01-10T23:51:00.514Z,23.10
2018-01-10T23:53:28.213Z,23.30
2018-01-10T23:55:55.973Z,23.50
2018-01-10T23:58:23.738Z,22.83
